sensor_id;sensor_type;location;lat;lon;timestamp;pressure;altitude;pressure_sealevel;temperature;humidity
7178;BME280;3630;42.146;24.756;2023-02-13T00:00:44;101378.22;;;6.51;51.99
7178;BME280;3630;42.146;24.756;2023-02-13T00:03:11;101390.09;;;6.64;52.08
7178;BME280;3630;42.146;24.756;2023-02-13T00:05:38;101402.78;;;6.49;51.74
7178;BME280;3630;42.146;24.756;2023-02-13T00:08:05;101380.22;;;6.42;52.32
7178;BME280;3630;42.146;24.756;2023-02-13T00:10:31;101405.91;;;6.59;51.58
7178;BME280;3630;42.146;24.756;2023-02-13T00:13:00;101406.88;;;6.61;51.75
7178;BME280;3630;42.146;24.756;2023-02-13T00:15:26;101398.16;;;6.44;52.20
7178;BME280;3630;42.146;24.756;2023-02-13T00:17:53;101403.03;;;6.54;52.18
7178;BME280;3630;42.146;24.756;2023-02-13T00:20:20;101407.31;;;6.53;52.16
7178;BME280;3630;42.146;24.756;2023-02-13T00:22:47;101409.84;;;6.53;51.90
7178;BME280;3630;42.146;24.756;2023-02-13T00:25:13;101410.81;;;6.56;51.87
7178;BME280;3630;42.146;24.756;2023-02-13T00:27:40;101408.16;;;6.54;51.69
7178;BME280;3630;42.146;24.756;2023-02-13T00:30:10;101416.00;;;6.57;52.13
7178;BME280;3630;42.146;24.756;2023-02-13T00:32:36;101414.47;;;6.59;52.03
7178;BME280;3630;42.146;24.756;2023-02-13T00:35:03;101414.03;;;6.66;52.17
7178;BME280;3630;42.146;24.756;2023-02-13T00:37:32;101410.59;;;6.66;52.28
7178;BME280;3630;42.146;24.756;2023-02-13T00:39:59;101414.31;;;6.71;51.46
7178;BME280;3630;42.146;24.756;2023-02-13T00:42:25;101416.09;;;6.72;51.58
7178;BME280;3630;42.146;24.756;2023-02-13T00:44:52;101415.66;;;6.79;52.04
7178;BME280;3630;42.146;24.756;2023-02-13T00:47:20;101406.53;;;6.82;51.10
7178;BME280;3630;42.146;24.756;2023-02-13T00:49:47;101415.09;;;6.83;51.69
7178;BME280;3630;42.146;24.756;2023-02-13T00:52:14;101405.06;;;6.86;51.67
7178;BME280;3630;42.146;24.756;2023-02-13T00:54:41;101410.25;;;6.87;50.97
7178;BME280;3630;42.146;24.756;2023-02-13T00:57:08;101406.03;;;6.88;51.76
7178;BME280;3630;42.146;24.756;2023-02-13T00:59:34;101411.13;;;6.88;50.87
7178;BME280;3630;42.146;24.756;2023-02-13T01:02:01;101413.41;;;6.83;50.78
7178;BME280;3630;42.146;24.756;2023-02-13T01:04:29;101402.13;;;6.80;51.36
7178;BME280;3630;42.146;24.756;2023-02-13T01:06:56;101419.41;;;6.84;51.52
7178;BME280;3630;42.146;24.756;2023-02-13T01:09:23;101392.44;;;6.61;51.42
7178;BME280;3630;42.146;24.756;2023-02-13T01:11:50;101416.38;;;6.76;51.58
7178;BME280;3630;42.146;24.756;2023-02-13T01:14:17;101408.44;;;6.72;51.60
7178;BME280;3630;42.146;24.756;2023-02-13T01:16:44;101418.91;;;6.76;51.75
7178;BME280;3630;42.146;24.756;2023-02-13T01:19:11;101416.38;;;6.76;51.68
7178;BME280;3630;42.146;24.756;2023-02-13T01:21:39;101410.97;;;6.72;51.36
7178;BME280;3630;42.146;24.756;2023-02-13T01:24:06;101408.63;;;6.75;51.31
7178;BME280;3630;42.146;24.756;2023-02-13T01:26:33;101407.31;;;6.81;51.46
7178;BME280;3630;42.146;24.756;2023-02-13T01:29:16;101407.63;;;6.86;51.40
7178;BME280;3630;42.146;24.756;2023-02-13T01:31:44;101416.06;;;6.85;51.61
7178;BME280;3630;42.146;24.756;2023-02-13T01:34:11;101411.66;;;6.82;51.54
7178;BME280;3630;42.146;24.756;2023-02-13T01:36:39;101422.06;;;6.85;51.30
7178;BME280;3630;42.146;24.756;2023-02-13T01:39:09;101413.22;;;6.80;51.59
7178;BME280;3630;42.146;24.756;2023-02-13T01:41:37;101429.44;;;6.81;51.13
7178;BME280;3630;42.146;24.756;2023-02-13T01:47:04;101429.75;;;6.72;51.96
7178;BME280;3630;42.146;24.756;2023-02-13T01:49:31;101436.06;;;6.64;51.91
7178;BME280;3630;42.146;24.756;2023-02-13T01:51:59;101431.44;;;6.59;51.68
7178;BME280;3630;42.146;24.756;2023-02-13T01:54:27;101436.38;;;6.42;53.13
7178;BME280;3630;42.146;24.756;2023-02-13T01:56:59;101434.97;;;6.08;54.78
7178;BME280;3630;42.146;24.756;2023-02-13T01:59:33;101445.06;;;5.93;55.47
7178;BME280;3630;42.146;24.756;2023-02-13T02:02:03;101435.47;;;5.65;57.00
7178;BME280;3630;42.146;24.756;2023-02-13T02:04:31;101441.09;;;5.48;57.75
7178;BME280;3630;42.146;24.756;2023-02-13T02:07:02;101448.00;;;5.12;59.62
7178;BME280;3630;42.146;24.756;2023-02-13T02:09:35;101450.63;;;4.89;61.53
7178;BME280;3630;42.146;24.756;2023-02-13T02:12:08;101446.78;;;4.83;61.93
7178;BME280;3630;42.146;24.756;2023-02-13T02:14:37;101451.88;;;4.71;62.51
7178;BME280;3630;42.146;24.756;2023-02-13T02:17:06;101449.56;;;4.62;62.85
7178;BME280;3630;42.146;24.756;2023-02-13T02:19:37;101409.00;;;4.29;63.61
7178;BME280;3630;42.146;24.756;2023-02-13T02:25:54;101466.09;;;4.33;65.01
7178;BME280;3630;42.146;24.756;2023-02-13T02:32:10;101473.03;;;4.00;67.21
7178;BME280;3630;42.146;24.756;2023-02-13T02:34:49;101469.69;;;3.78;68.52
7178;BME280;3630;42.146;24.756;2023-02-13T02:37:30;101478.44;;;3.82;68.54
7178;BME280;3630;42.146;24.756;2023-02-13T02:40:09;101481.84;;;3.94;68.88
7178;BME280;3630;42.146;24.756;2023-02-13T02:42:45;101490.13;;;3.80;69.08
7178;BME280;3630;42.146;24.756;2023-02-13T02:45:23;101493.97;;;3.75;69.87
7178;BME280;3630;42.146;24.756;2023-02-13T02:47:55;101494.41;;;3.69;69.92
7178;BME280;3630;42.146;24.756;2023-02-13T02:50:45;101491.53;;;3.65;69.96
7178;BME280;3630;42.146;24.756;2023-02-13T02:53:27;101489.31;;;3.69;70.38
7178;BME280;3630;42.146;24.756;2023-02-13T02:56:01;101489.97;;;3.67;70.56
7178;BME280;3630;42.146;24.756;2023-02-13T02:58:36;101486.00;;;3.70;70.51
7178;BME280;3630;42.146;24.756;2023-02-13T03:01:24;101498.13;;;3.63;70.50
7178;BME280;3630;42.146;24.756;2023-02-13T03:04:17;101500.09;;;3.55;70.95
7178;BME280;3630;42.146;24.756;2023-02-13T03:07:05;101514.34;;;3.53;71.04
7178;BME280;3630;42.146;24.756;2023-02-13T03:09:38;101504.25;;;3.43;71.55
7178;BME280;3630;42.146;24.756;2023-02-13T03:12:35;101485.22;;;3.38;71.52
7178;BME280;3630;42.146;24.756;2023-02-13T03:15:22;101506.06;;;3.55;71.38
7178;BME280;3630;42.146;24.756;2023-02-13T03:17:51;101502.13;;;3.59;71.23
7178;BME280;3630;42.146;24.756;2023-02-13T03:20:44;101495.25;;;3.58;71.03
7178;BME280;3630;42.146;24.756;2023-02-13T03:23:36;101493.69;;;3.60;71.08
7178;BME280;3630;42.146;24.756;2023-02-13T03:26:21;101504.28;;;3.54;70.68
7178;BME280;3630;42.146;24.756;2023-02-13T03:29:03;101508.75;;;3.57;71.31
7178;BME280;3630;42.146;24.756;2023-02-13T03:31:54;101506.41;;;3.60;70.87
7178;BME280;3630;42.146;24.756;2023-02-13T03:34:29;101498.59;;;3.57;70.88
7178;BME280;3630;42.146;24.756;2023-02-13T03:37:26;101510.22;;;3.65;70.17
7178;BME280;3630;42.146;24.756;2023-02-13T03:40:21;101516.38;;;3.57;70.72
7178;BME280;3630;42.146;24.756;2023-02-13T03:42:52;101517.88;;;3.55;70.55
7178;BME280;3630;42.146;24.756;2023-02-13T03:45:22;101512.81;;;3.55;70.83
7178;BME280;3630;42.146;24.756;2023-02-13T03:48:10;101519.91;;;3.59;70.99
7178;BME280;3630;42.146;24.756;2023-02-13T03:51:17;101514.81;;;3.59;70.51
7178;BME280;3630;42.146;24.756;2023-02-13T03:53:51;101509.66;;;3.69;70.46
7178;BME280;3630;42.146;24.756;2023-02-13T03:56:21;101517.38;;;3.59;70.38
7178;BME280;3630;42.146;24.756;2023-02-13T03:59:09;101517.13;;;3.56;70.21
7178;BME280;3630;42.146;24.756;2023-02-13T04:01:49;101501.06;;;3.45;70.60
7178;BME280;3630;42.146;24.756;2023-02-13T04:04:22;101513.13;;;3.48;70.55
7178;BME280;3630;42.146;24.756;2023-02-13T04:06:53;101511.56;;;3.50;70.89
7178;BME280;3630;42.146;24.756;2023-02-13T04:09:24;101517.41;;;3.49;70.96
7178;BME280;3630;42.146;24.756;2023-02-13T04:11:56;101519.19;;;3.50;71.06
7178;BME280;3630;42.146;24.756;2023-02-13T04:14:27;101513.13;;;3.48;71.02
7178;BME280;3630;42.146;24.756;2023-02-13T04:16:58;101513.47;;;3.52;70.30
7178;BME280;3630;42.146;24.756;2023-02-13T04:19:28;101515.25;;;3.53;70.28
7178;BME280;3630;42.146;24.756;2023-02-13T04:21:56;101518.19;;;3.48;70.41
7178;BME280;3630;42.146;24.756;2023-02-13T04:24:26;101513.63;;;3.44;70.86
7178;BME280;3630;42.146;24.756;2023-02-13T04:26:54;101519.28;;;3.40;71.26
7178;BME280;3630;42.146;24.756;2023-02-13T04:29:22;101523.94;;;3.45;70.82
7178;BME280;3630;42.146;24.756;2023-02-13T04:31:50;101513.78;;;3.45;70.24
7178;BME280;3630;42.146;24.756;2023-02-13T04:34:17;101513.13;;;3.48;70.53
7178;BME280;3630;42.146;24.756;2023-02-13T04:36:44;101512.88;;;3.45;69.30
7178;BME280;3630;42.146;24.756;2023-02-13T04:39:10;101514.53;;;3.44;69.12
7178;BME280;3630;42.146;24.756;2023-02-13T04:41:39;101512.53;;;3.40;69.35
7178;BME280;3630;42.146;24.756;2023-02-13T04:44:05;101510.00;;;3.40;69.24
7178;BME280;3630;42.146;24.756;2023-02-13T04:46:32;101517.63;;;3.40;69.40
7178;BME280;3630;42.146;24.756;2023-02-13T04:48:59;101523.03;;;3.45;69.53
7178;BME280;3630;42.146;24.756;2023-02-13T04:51:26;101524.59;;;3.43;69.46
7178;BME280;3630;42.146;24.756;2023-02-13T04:53:54;101522.09;;;3.33;69.39
7178;BME280;3630;42.146;24.756;2023-02-13T04:56:23;101528.06;;;3.33;69.61
7178;BME280;3630;42.146;24.756;2023-02-13T04:58:51;101526.94;;;3.30;69.83
7178;BME280;3630;42.146;24.756;2023-02-13T05:01:18;101530.03;;;3.26;69.93
7178;BME280;3630;42.146;24.756;2023-02-13T05:03:44;101523.56;;;3.19;70.28
7178;BME280;3630;42.146;24.756;2023-02-13T05:06:11;101524.47;;;3.20;69.68
7178;BME280;3630;42.146;24.756;2023-02-13T05:08:38;101524.34;;;3.18;69.75
7178;BME280;3630;42.146;24.756;2023-02-13T05:11:05;101533.03;;;3.10;69.72
7178;BME280;3630;42.146;24.756;2023-02-13T05:13:32;101530.91;;;3.05;70.06
7178;BME280;3630;42.146;24.756;2023-02-13T05:16:00;101537.63;;;3.04;69.76
7178;BME280;3630;42.146;24.756;2023-02-13T05:18:27;101539.31;;;2.93;70.03
7178;BME280;3630;42.146;24.756;2023-02-13T05:20:55;101539.31;;;2.93;70.64
7178;BME280;3630;42.146;24.756;2023-02-13T05:23:39;101545.91;;;2.91;70.32
7178;BME280;3630;42.146;24.756;2023-02-13T05:26:06;101550.88;;;2.90;70.61
7178;BME280;3630;42.146;24.756;2023-02-13T05:28:33;101558.16;;;2.85;70.88
7178;BME280;3630;42.146;24.756;2023-02-13T05:31:18;101558.41;;;2.78;70.97
7178;BME280;3630;42.146;24.756;2023-02-13T05:33:45;101465.31;;;2.25;70.86
7178;BME280;3630;42.146;24.756;2023-02-13T05:36:12;101564.13;;;2.76;71.18
7178;BME280;3630;42.146;24.756;2023-02-13T05:38:38;101567.31;;;2.73;71.00
7178;BME280;3630;42.146;24.756;2023-02-13T05:41:06;101572.88;;;2.69;71.41
7178;BME280;3630;42.146;24.756;2023-02-13T05:43:33;101571.63;;;2.64;71.64
7178;BME280;3630;42.146;24.756;2023-02-13T05:46:01;101579.00;;;2.71;71.63
7178;BME280;3630;42.146;24.756;2023-02-13T05:48:30;101581.53;;;2.71;71.74
7178;BME280;3630;42.146;24.756;2023-02-13T05:50:57;101585.06;;;2.73;72.07
7178;BME280;3630;42.146;24.756;2023-02-13T05:53:24;101573.84;;;2.50;72.36
7178;BME280;3630;42.146;24.756;2023-02-13T05:55:51;101589.44;;;2.54;72.66
7178;BME280;3630;42.146;24.756;2023-02-13T05:58:18;101595.91;;;2.41;72.63
7178;BME280;3630;42.146;24.756;2023-02-13T06:00:45;101593.53;;;2.22;73.29
7178;BME280;3630;42.146;24.756;2023-02-13T06:03:13;101593.25;;;2.09;74.34
7178;BME280;3630;42.146;24.756;2023-02-13T06:05:41;101591.25;;;1.95;75.31
7178;BME280;3630;42.146;24.756;2023-02-13T06:08:08;101588.19;;;1.99;74.94
7178;BME280;3630;42.146;24.756;2023-02-13T06:10:35;101469.56;;;1.44;75.02
7178;BME280;3630;42.146;24.756;2023-02-13T06:13:01;101599.34;;;2.31;73.69
7178;BME280;3630;42.146;24.756;2023-02-13T06:15:28;101590.72;;;2.29;73.26
7178;BME280;3630;42.146;24.756;2023-02-13T06:17:55;101590.47;;;2.26;73.47
7178;BME280;3630;42.146;24.756;2023-02-13T06:20:22;101596.53;;;2.48;73.54
7178;BME280;3630;42.146;24.756;2023-02-13T06:22:50;101596.72;;;2.81;71.84
7178;BME280;3630;42.146;24.756;2023-02-13T06:25:18;101573.91;;;2.61;71.10
7178;BME280;3630;42.146;24.756;2023-02-13T06:27:45;101610.72;;;2.56;71.49
7178;BME280;3630;42.146;24.756;2023-02-13T06:30:13;101608.47;;;2.49;72.06
7178;BME280;3630;42.146;24.756;2023-02-13T06:32:40;101606.03;;;2.51;72.02
7178;BME280;3630;42.146;24.756;2023-02-13T06:35:07;101591.19;;;2.45;72.37
7178;BME280;3630;42.146;24.756;2023-02-13T06:37:34;101597.94;;;2.55;72.24
7178;BME280;3630;42.146;24.756;2023-02-13T06:40:03;101597.53;;;2.60;71.80
7178;BME280;3630;42.146;24.756;2023-02-13T06:42:30;101605.00;;;2.69;71.77
7178;BME280;3630;42.146;24.756;2023-02-13T06:44:57;101593.44;;;2.72;71.68
7178;BME280;3630;42.146;24.756;2023-02-13T06:47:23;101592.41;;;2.80;71.72
7178;BME280;3630;42.146;24.756;2023-02-13T06:49:50;101588.22;;;2.81;71.64
7178;BME280;3630;42.146;24.756;2023-02-13T06:52:17;101596.19;;;2.95;71.36
7178;BME280;3630;42.146;24.756;2023-02-13T06:54:44;101599.22;;;3.02;70.71
7178;BME280;3630;42.146;24.756;2023-02-13T06:57:12;101597.63;;;3.14;70.80
7178;BME280;3630;42.146;24.756;2023-02-13T06:59:39;101593.19;;;3.21;70.71
7178;BME280;3630;42.146;24.756;2023-02-13T07:02:07;101589.44;;;3.28;69.91
7178;BME280;3630;42.146;24.756;2023-02-13T07:04:34;101595.09;;;3.45;69.90
7178;BME280;3630;42.146;24.756;2023-02-13T07:07:01;101591.00;;;3.47;69.11
7178;BME280;3630;42.146;24.756;2023-02-13T07:09:28;101582.06;;;3.52;68.90
7178;BME280;3630;42.146;24.756;2023-02-13T07:11:56;101582.00;;;3.63;68.53
7178;BME280;3630;42.146;24.756;2023-02-13T07:14:24;101582.06;;;3.74;67.90
7178;BME280;3630;42.146;24.756;2023-02-13T07:16:51;101583.75;;;3.85;67.95
7178;BME280;3630;42.146;24.756;2023-02-13T07:19:18;101588.66;;;3.94;67.13
7178;BME280;3630;42.146;24.756;2023-02-13T07:21:45;101593.56;;;4.02;66.51
7178;BME280;3630;42.146;24.756;2023-02-13T07:24:11;101583.06;;;4.09;65.77
7178;BME280;3630;42.146;24.756;2023-02-13T07:26:38;101587.41;;;4.10;65.44
7178;BME280;3630;42.146;24.756;2023-02-13T07:29:05;101584.66;;;4.19;65.72
7178;BME280;3630;42.146;24.756;2023-02-13T07:31:34;101589.19;;;4.23;65.47
7178;BME280;3630;42.146;24.756;2023-02-13T07:34:01;101595.53;;;4.28;64.93
7178;BME280;3630;42.146;24.756;2023-02-13T07:36:28;101595.66;;;4.41;64.90
7178;BME280;3630;42.146;24.756;2023-02-13T07:38:54;101513.97;;;4.03;63.88
7178;BME280;3630;42.146;24.756;2023-02-13T07:41:21;101585.72;;;4.56;63.94
7178;BME280;3630;42.146;24.756;2023-02-13T07:43:51;101587.03;;;4.62;63.78
7178;BME280;3630;42.146;24.756;2023-02-13T07:46:17;101587.50;;;4.68;63.89
7178;BME280;3630;42.146;24.756;2023-02-13T07:48:46;101586.41;;;4.76;63.20
7178;BME280;3630;42.146;24.756;2023-02-13T07:51:13;101584.38;;;4.72;62.21
7178;BME280;3630;42.146;24.756;2023-02-13T07:53:40;101589.50;;;4.84;63.03
7178;BME280;3630;42.146;24.756;2023-02-13T07:56:08;101587.63;;;4.93;62.88
7178;BME280;3630;42.146;24.756;2023-02-13T07:58:36;101586.41;;;5.00;61.81
7178;BME280;3630;42.146;24.756;2023-02-13T08:01:05;101576.84;;;4.97;61.76
7178;BME280;3630;42.146;24.756;2023-02-13T08:03:32;101575.78;;;5.05;61.18
7178;BME280;3630;42.146;24.756;2023-02-13T08:06:01;101577.66;;;5.08;61.00
7178;BME280;3630;42.146;24.756;2023-02-13T08:08:28;101579.75;;;5.13;61.29
7178;BME280;3630;42.146;24.756;2023-02-13T08:10:56;101580.72;;;5.15;60.91
7178;BME280;3630;42.146;24.756;2023-02-13T08:13:40;101576.84;;;5.20;60.09
7178;BME280;3630;42.146;24.756;2023-02-13T08:16:08;101584.78;;;5.25;60.12
7178;BME280;3630;42.146;24.756;2023-02-13T08:18:35;101577.06;;;5.23;60.24
7178;BME280;3630;42.146;24.756;2023-02-13T08:21:03;101574.50;;;5.23;60.58
7178;BME280;3630;42.146;24.756;2023-02-13T08:23:30;101570.63;;;5.28;60.04
7178;BME280;3630;42.146;24.756;2023-02-13T08:25:58;101563.94;;;5.30;60.05
7178;BME280;3630;42.146;24.756;2023-02-13T08:28:26;101571.47;;;5.41;60.37
7178;BME280;3630;42.146;24.756;2023-02-13T08:30:53;101571.69;;;5.44;60.18
7178;BME280;3630;42.146;24.756;2023-02-13T08:33:20;101578.44;;;5.55;59.95
7178;BME280;3630;42.146;24.756;2023-02-13T08:35:47;101566.88;;;5.60;59.53
7178;BME280;3630;42.146;24.756;2023-02-13T08:38:15;101571.06;;;5.71;59.71
7178;BME280;3630;42.146;24.756;2023-02-13T08:40:42;101558.78;;;5.65;58.83
7178;BME280;3630;42.146;24.756;2023-02-13T08:43:09;101569.31;;;5.83;58.64
7178;BME280;3630;42.146;24.756;2023-02-13T08:45:35;101574.34;;;5.81;58.89
7178;BME280;3630;42.146;24.756;2023-02-13T08:48:02;101558.91;;;5.80;58.99
7178;BME280;3630;42.146;24.756;2023-02-13T08:50:29;101547.72;;;5.78;59.10
7178;BME280;3630;42.146;24.756;2023-02-13T08:52:57;101555.22;;;5.88;58.32
7178;BME280;3630;42.146;24.756;2023-02-13T08:55:26;101557.66;;;5.98;57.53
7178;BME280;3630;42.146;24.756;2023-02-13T08:57:54;101559.81;;;6.05;57.98
7178;BME280;3630;42.146;24.756;2023-02-13T09:00:21;101562.31;;;6.17;57.75
7178;BME280;3630;42.146;24.756;2023-02-13T09:02:47;101553.19;;;6.20;57.62
7178;BME280;3630;42.146;24.756;2023-02-13T09:05:15;101560.47;;;6.27;57.31
7178;BME280;3630;42.146;24.756;2023-02-13T09:07:41;101545.91;;;6.26;56.69
7178;BME280;3630;42.146;24.756;2023-02-13T09:10:09;101557.56;;;6.34;56.79
7178;BME280;3630;42.146;24.756;2023-02-13T09:12:37;101549.28;;;6.38;57.06
7178;BME280;3630;42.146;24.756;2023-02-13T09:15:04;101531.41;;;6.38;56.79
7178;BME280;3630;42.146;24.756;2023-02-13T09:17:31;101545.69;;;6.61;55.85
7178;BME280;3630;42.146;24.756;2023-02-13T09:19:58;101456.41;;;6.23;55.54
7178;BME280;3630;42.146;24.756;2023-02-13T09:22:25;101539.19;;;6.79;55.03
7178;BME280;3630;42.146;24.756;2023-02-13T09:24:51;101535.44;;;6.87;55.41
7178;BME280;3630;42.146;24.756;2023-02-13T09:27:18;101527.91;;;6.89;55.00
7178;BME280;3630;42.146;24.756;2023-02-13T09:29:46;101526.78;;;6.98;54.61
7178;BME280;3630;42.146;24.756;2023-02-13T09:32:13;101522.66;;;7.00;55.05
7178;BME280;3630;42.146;24.756;2023-02-13T09:34:41;101519.97;;;7.12;54.20
7178;BME280;3630;42.146;24.756;2023-02-13T09:37:08;101511.22;;;7.22;53.53
7178;BME280;3630;42.146;24.756;2023-02-13T09:39:35;101510.72;;;7.27;53.17
7178;BME280;3630;42.146;24.756;2023-02-13T09:42:02;101489.44;;;7.28;53.74
7178;BME280;3630;42.146;24.756;2023-02-13T09:44:35;101489.44;;;7.28;52.71
7178;BME280;3630;42.146;24.756;2023-02-13T09:47:13;101498.59;;;7.38;52.99
7178;BME280;3630;42.146;24.756;2023-02-13T09:49:45;101490.28;;;7.42;53.40
7178;BME280;3630;42.146;24.756;2023-02-13T09:52:13;101488.84;;;7.60;52.36
7178;BME280;3630;42.146;24.756;2023-02-13T09:54:40;101495.06;;;7.63;51.85
7178;BME280;3630;42.146;24.756;2023-02-13T09:57:14;101482.03;;;7.46;52.10
7178;BME280;3630;42.146;24.756;2023-02-13T09:59:52;101476.59;;;7.54;52.01
7178;BME280;3630;42.146;24.756;2023-02-13T10:02:32;101470.31;;;7.64;52.11
7178;BME280;3630;42.146;24.756;2023-02-13T10:05:13;101458.75;;;7.56;52.00
7178;BME280;3630;42.146;24.756;2023-02-13T10:07:48;101460.38;;;7.68;51.93
7178;BME280;3630;42.146;24.756;2023-02-13T10:10:26;101458.63;;;7.82;51.06
7178;BME280;3630;42.146;24.756;2023-02-13T10:13:06;101452.44;;;7.79;50.14
7178;BME280;3630;42.146;24.756;2023-02-13T10:15:44;101408.94;;;7.64;49.73
7178;BME280;3630;42.146;24.756;2023-02-13T10:18:17;101442.13;;;7.92;49.68
7178;BME280;3630;42.146;24.756;2023-02-13T10:20:48;101433.91;;;7.97;49.88
7178;BME280;3630;42.146;24.756;2023-02-13T10:23:21;101437.72;;;8.18;49.09
7178;BME280;3630;42.146;24.756;2023-02-13T10:25:54;101430.28;;;8.23;48.72
7178;BME280;3630;42.146;24.756;2023-02-13T10:28:30;101426.75;;;8.21;48.40
7178;BME280;3630;42.146;24.756;2023-02-13T10:31:03;101410.25;;;8.30;47.75
7178;BME280;3630;42.146;24.756;2023-02-13T10:33:35;101413.56;;;8.44;47.46
7178;BME280;3630;42.146;24.756;2023-02-13T10:36:11;101391.00;;;8.37;47.39
7178;BME280;3630;42.146;24.756;2023-02-13T10:38:44;101404.00;;;8.56;47.48
7178;BME280;3630;42.146;24.756;2023-02-13T10:41:24;101395.84;;;8.63;46.39
7178;BME280;3630;42.146;24.756;2023-02-13T10:44:04;101403.00;;;8.69;46.12
7178;BME280;3630;42.146;24.756;2023-02-13T10:46:40;101389.28;;;8.68;46.08
7178;BME280;3630;42.146;24.756;2023-02-13T10:52:09;101382.09;;;8.94;45.63
7178;BME280;3630;42.146;24.756;2023-02-13T10:54:55;101370.19;;;8.94;44.70
7178;BME280;3630;42.146;24.756;2023-02-13T10:57:27;101351.91;;;8.88;44.86
7178;BME280;3630;42.146;24.756;2023-02-13T11:00:07;101371.63;;;9.05;44.59
7178;BME280;3630;42.146;24.756;2023-02-13T11:02:36;101361.31;;;9.04;44.75
7178;BME280;3630;42.146;24.756;2023-02-13T11:05:13;101350.22;;;9.05;44.48
7178;BME280;3630;42.146;24.756;2023-02-13T11:07:42;101361.38;;;9.05;43.94
7178;BME280;3630;42.146;24.756;2023-02-13T11:10:13;101352.38;;;9.13;43.96
7178;BME280;3630;42.146;24.756;2023-02-13T11:12:40;101335.31;;;9.14;43.33
7178;BME280;3630;42.146;24.756;2023-02-13T11:15:21;101317.22;;;9.11;42.89
7178;BME280;3630;42.146;24.756;2023-02-13T11:17:51;101330.09;;;9.28;42.79
7178;BME280;3630;42.146;24.756;2023-02-13T11:20:27;101325.28;;;9.18;43.64
7178;BME280;3630;42.146;24.756;2023-02-13T11:22:56;101322.78;;;9.36;42.33
7178;BME280;3630;42.146;24.756;2023-02-13T11:25:40;101308.56;;;9.42;42.99
7178;BME280;3630;42.146;24.756;2023-02-13T11:28:09;101307.25;;;9.50;42.94
7178;BME280;3630;42.146;24.756;2023-02-13T11:30:42;101301.69;;;9.59;42.06
7178;BME280;3630;42.146;24.756;2023-02-13T11:33:20;101299.38;;;9.64;42.36
7178;BME280;3630;42.146;24.756;2023-02-13T11:36:03;101285.72;;;9.65;41.97
7178;BME280;3630;42.146;24.756;2023-02-13T11:38:31;101290.50;;;9.75;42.09
7178;BME280;3630;42.146;24.756;2023-02-13T11:41:05;101290.78;;;9.81;42.18
7178;BME280;3630;42.146;24.756;2023-02-13T11:43:35;101276.56;;;9.87;41.81
7178;BME280;3630;42.146;24.756;2023-02-13T11:46:05;101279.97;;;10.05;41.57
7178;BME280;3630;42.146;24.756;2023-02-13T11:48:33;101270.66;;;10.07;41.63
7178;BME280;3630;42.146;24.756;2023-02-13T11:51:02;101261.06;;;10.21;41.22
7178;BME280;3630;42.146;24.756;2023-02-13T11:53:30;101262.75;;;10.21;41.08
7178;BME280;3630;42.146;24.756;2023-02-13T11:56:06;101248.41;;;10.26;40.83
7178;BME280;3630;42.146;24.756;2023-02-13T11:58:34;101248.56;;;10.29;39.85
7178;BME280;3630;42.146;24.756;2023-02-13T12:01:23;101245.84;;;10.26;37.88
7178;BME280;3630;42.146;24.756;2023-02-13T12:04:01;101241.75;;;10.29;38.39
7178;BME280;3630;42.146;24.756;2023-02-13T12:06:30;101210.00;;;9.92;38.51
7178;BME280;3630;42.146;24.756;2023-02-13T12:09:04;101239.78;;;10.24;38.29
7178;BME280;3630;42.146;24.756;2023-02-13T12:11:35;101238.22;;;10.27;38.28
7178;BME280;3630;42.146;24.756;2023-02-13T12:14:04;101238.34;;;10.30;38.21
7178;BME280;3630;42.146;24.756;2023-02-13T12:16:39;101232.59;;;10.36;37.12
7178;BME280;3630;42.146;24.756;2023-02-13T12:19:11;101223.06;;;10.33;37.69
7178;BME280;3630;42.146;24.756;2023-02-13T12:22:05;101218.06;;;10.36;37.81
7178;BME280;3630;42.146;24.756;2023-02-13T12:24:53;101220.16;;;10.45;36.94
7178;BME280;3630;42.146;24.756;2023-02-13T12:27:27;101212.72;;;10.51;37.92
7178;BME280;3630;42.146;24.756;2023-02-13T12:30:12;101211.97;;;10.53;37.32
7178;BME280;3630;42.146;24.756;2023-02-13T12:32:48;101216.50;;;10.59;36.70
7178;BME280;3630;42.146;24.756;2023-02-13T12:35:34;101205.47;;;10.61;35.83
7178;BME280;3630;42.146;24.756;2023-02-13T12:38:16;101206.88;;;10.74;35.60
7178;BME280;3630;42.146;24.756;2023-02-13T12:41:06;101208.81;;;10.80;36.15
7178;BME280;3630;42.146;24.756;2023-02-13T12:46:49;101198.97;;;10.70;36.83
7178;BME280;3630;42.146;24.756;2023-02-13T12:49:41;101195.16;;;10.60;36.66
7178;BME280;3630;42.146;24.756;2023-02-13T12:52:21;101205.53;;;10.63;36.58
7178;BME280;3630;42.146;24.756;2023-02-13T12:55:05;101189.50;;;10.68;36.18
7178;BME280;3630;42.146;24.756;2023-02-13T12:57:49;101191.59;;;10.58;36.74
7178;BME280;3630;42.146;24.756;2023-02-13T13:00:28;101190.97;;;10.43;35.90
7178;BME280;3630;42.146;24.756;2023-02-13T13:03:20;101174.31;;;10.54;36.45
7178;BME280;3630;42.146;24.756;2023-02-13T13:06:02;101185.63;;;10.57;35.69
7178;BME280;3630;42.146;24.756;2023-02-13T13:08:41;101181.72;;;10.67;35.52
7178;BME280;3630;42.146;24.756;2023-02-13T13:11:26;101184.13;;;10.83;35.79
7178;BME280;3630;42.146;24.756;2023-02-13T13:14:03;101184.25;;;10.86;35.44
7178;BME280;3630;42.146;24.756;2023-02-13T13:16:40;101178.38;;;10.89;35.29
7178;BME280;3630;42.146;24.756;2023-02-13T13:19:19;101176.81;;;10.92;35.22
7178;BME280;3630;42.146;24.756;2023-02-13T13:21:53;101145.13;;;10.73;34.60
7178;BME280;3630;42.146;24.756;2023-02-13T13:24:38;101158.69;;;10.89;35.19
7178;BME280;3630;42.146;24.756;2023-02-13T13:27:14;101164.34;;;11.01;34.70
7178;BME280;3630;42.146;24.756;2023-02-13T13:29:47;101155.75;;;11.01;35.17
7178;BME280;3630;42.146;24.756;2023-02-13T13:32:18;101161.31;;;10.91;35.10
7178;BME280;3630;42.146;24.756;2023-02-13T13:34:47;101156.47;;;10.78;35.12
7178;BME280;3630;42.146;24.756;2023-02-13T13:37:21;101149.38;;;10.72;35.23
7178;BME280;3630;42.146;24.756;2023-02-13T13:39:55;101109.66;;;10.45;35.53
7178;BME280;3630;42.146;24.756;2023-02-13T13:42:31;101154.78;;;10.78;35.12
7178;BME280;3630;42.146;24.756;2023-02-13T13:45:12;101148.63;;;10.75;35.16
7178;BME280;3630;42.146;24.756;2023-02-13T13:47:53;101143.94;;;10.85;34.83
7178;BME280;3630;42.146;24.756;2023-02-13T13:50:25;101143.31;;;10.91;35.11